Time;durP1;ratioP1;P1;durP2;ratioP2;P2;SDS_P1;SDS_P2;PMS_P1;PMS_P2;Temp;Humidity;BMP_temperature;BMP_pressure;BME280_temperature;BME280_humidity;BME280_pressure;Samples;Min_cycle;Max_cycle;Signal;HPM_P1;HPM_P2
2023/05/01 00:00:08;;;;;;;8.10;4.75;;;10.00;99.90;;;;;;5048938;28;20033;-59
2023/05/01 00:02:35;;;;;;;7.13;4.72;;;9.90;99.90;;;;;;5051165;28;20040;-59
2023/05/01 00:05:01;;;;;;;7.13;4.82;;;9.90;99.90;;;;;;5036940;28;20048;-61
2023/05/01 00:07:30;;;;;;;7.25;4.28;;;9.90;99.90;;;;;;5043852;28;20408;-60
2023/05/01 00:09:58;;;;;;;8.52;4.93;;;9.90;99.90;;;;;;5035555;28;20033;-60
2023/05/01 00:12:25;;;;;;;7.93;4.63;;;9.80;99.90;;;;;;5046060;28;20036;-60
2023/05/01 00:14:53;;;;;;;6.40;4.63;;;9.80;99.90;;;;;;5043935;28;20083;-59
2023/05/01 00:17:19;;;;;;;9.50;5.00;;;9.80;99.90;;;;;;5045741;28;20044;-59
2023/05/01 00:19:44;;;;;;;8.45;4.65;;;9.80;99.90;;;;;;5051384;28;20488;-60
2023/05/01 00:22:10;;;;;;;7.00;4.68;;;9.80;99.90;;;;;;5048077;28;20056;-59
2023/05/01 00:24:36;;;;;;;7.15;4.22;;;9.70;99.90;;;;;;5036356;28;20509;-60
2023/05/01 00:27:02;;;;;;;6.63;4.40;;;9.80;99.90;;;;;;5037141;28;20040;-60
2023/05/01 00:29:28;;;;;;;6.53;4.00;;;9.70;99.90;;;;;;5037332;28;20053;-60
2023/05/01 00:31:54;;;;;;;7.85;4.50;;;9.70;99.90;;;;;;5047063;28;20707;-60
2023/05/01 00:34:20;;;;;;;8.68;4.32;;;9.60;99.90;;;;;;5036646;28;20081;-60
2023/05/01 00:36:45;;;;;;;8.55;4.20;;;9.60;99.90;;;;;;5038003;28;20074;-59
2023/05/01 00:39:11;;;;;;;6.88;4.22;;;9.60;99.90;;;;;;5045424;28;20132;-60
2023/05/01 00:41:37;;;;;;;6.18;4.47;;;9.60;99.90;;;;;;5043845;28;20104;-59
2023/05/01 00:44:03;;;;;;;7.82;4.30;;;9.50;99.90;;;;;;5049490;28;21708;-59
2023/05/01 00:46:30;;;;;;;9.25;4.70;;;9.50;99.90;;;;;;5045460;28;20503;-60
2023/05/01 00:48:57;;;;;;;7.80;5.00;;;9.50;99.90;;;;;;5049064;28;20029;-59
2023/05/01 00:51:23;;;;;;;7.28;3.92;;;9.40;99.90;;;;;;5047161;28;20116;-59
2023/05/01 00:53:50;;;;;;;7.32;3.95;;;9.40;99.90;;;;;;5039307;28;20037;-58
2023/05/01 00:56:16;;;;;;;8.57;4.50;;;9.40;99.90;;;;;;5044424;28;20507;-59
2023/05/01 00:58:44;;;;;;;5.82;4.25;;;9.40;99.90;;;;;;5046033;28;20049;-59
2023/05/01 01:01:11;;;;;;;6.47;3.95;;;9.30;99.90;;;;;;5042376;28;20037;-60
2023/05/01 01:03:37;;;;;;;6.53;4.18;;;9.30;99.90;;;;;;5032835;28;20040;-60
2023/05/01 01:06:35;;;;;;;5.22;4.00;;;9.20;99.90;;;;;;5041447;28;20449;-59
2023/05/01 01:09:16;;;;;;;7.95;4.03;;;9.20;99.90;;;;;;5038150;28;20099;-61
2023/05/01 01:11:48;;;;;;;6.43;4.25;;;9.10;99.90;;;;;;5047512;28;20077;-59
2023/05/01 01:14:42;;;;;;;5.72;4.35;;;9.10;99.90;;;;;;5047747;28;20707;-58
2023/05/01 01:17:20;;;;;;;6.70;4.40;;;9.10;99.90;;;;;;5045968;28;20056;-59
2023/05/01 01:20:09;;;;;;;6.95;4.03;;;9.00;99.90;;;;;;5048960;28;20103;-59
2023/05/01 01:22:38;;;;;;;6.53;3.97;;;9.00;99.90;;;;;;5060590;28;20049;-60
2023/05/01 01:25:20;;;;;;;5.40;4.00;;;8.90;99.90;;;;;;5049373;28;20043;-59
2023/05/01 01:28:07;;;;;;;9.15;4.07;;;8.90;99.90;;;;;;5044051;28;20415;-60
2023/05/01 01:30:48;;;;;;;6.07;4.05;;;8.90;99.90;;;;;;5046391;28;20425;-60
2023/05/01 01:33:16;;;;;;;6.60;4.20;;;8.90;99.90;;;;;;5049618;28;20045;-60
2023/05/01 01:35:51;;;;;;;5.18;4.30;;;8.90;99.90;;;;;;5046948;28;20041;-59
2023/05/01 01:38:21;;;;;;;6.88;4.57;;;8.80;99.90;;;;;;5049659;28;20072;-60
2023/05/01 01:40:57;;;;;;;5.25;4.05;;;8.80;99.90;;;;;;5048718;28;20090;-60
2023/05/01 01:43:25;;;;;;;5.90;4.20;;;8.70;99.90;;;;;;5048393;28;20033;-59
2023/05/01 01:45:57;;;;;;;5.50;4.00;;;8.80;99.90;;;;;;5038010;28;20504;-60
2023/05/01 01:48:28;;;;;;;6.47;3.90;;;8.70;99.90;;;;;;5036151;28;20044;-59
2023/05/01 01:50:58;;;;;;;10.00;4.10;;;8.70;99.90;;;;;;5042688;28;20049;-60
2023/05/01 01:53:27;;;;;;;6.13;4.60;;;8.60;99.90;;;;;;5041791;28;20483;-59
2023/05/01 01:55:56;;;;;;;7.70;4.43;;;8.60;99.90;;;;;;5038865;28;20044;-58
2023/05/01 01:58:25;;;;;;;7.22;4.28;;;8.60;99.90;;;;;;5046165;28;20484;-59
2023/05/01 02:00:53;;;;;;;7.25;4.78;;;8.60;99.90;;;;;;5049481;28;20041;-61
2023/05/01 02:03:20;;;;;;;6.57;3.80;;;8.50;99.90;;;;;;5047797;28;20446;-59
2023/05/01 02:05:48;;;;;;;6.43;3.70;;;8.50;99.90;;;;;;5050276;28;20041;-60
2023/05/01 02:08:15;;;;;;;8.65;4.30;;;8.50;99.90;;;;;;5041208;28;20049;-59
2023/05/01 02:10:42;;;;;;;7.97;4.68;;;8.50;99.90;;;;;;5039437;28;20041;-59
2023/05/01 02:13:11;;;;;;;7.50;4.53;;;8.40;99.90;;;;;;5036617;28;20075;-60
2023/05/01 02:15:39;;;;;;;6.60;4.40;;;8.50;99.90;;;;;;5038012;28;20132;-59
2023/05/01 02:18:06;;;;;;;12.65;5.03;;;8.50;99.90;;;;;;5045086;28;20048;-58
2023/05/01 02:20:32;;;;;;;6.78;4.40;;;8.40;99.90;;;;;;5036316;28;20044;-59
2023/05/01 02:22:59;;;;;;;6.80;4.75;;;8.50;99.90;;;;;;5034775;28;20349;-59
2023/05/01 02:25:30;;;;;;;7.47;4.45;;;8.40;99.90;;;;;;5038721;28;20120;-59
2023/05/01 02:28:00;;;;;;;9.43;4.30;;;8.40;99.90;;;;;;5035290;28;20037;-60
2023/05/01 02:30:26;;;;;;;9.55;4.35;;;8.40;99.90;;;;;;5038087;28;20045;-59
2023/05/01 02:32:52;;;;;;;7.80;5.00;;;8.40;99.90;;;;;;5045235;28;20040;-59
2023/05/01 02:35:17;;;;;;;6.93;3.88;;;8.40;99.90;;;;;;5031099;28;20050;-59
2023/05/01 02:37:46;;;;;;;6.90;4.40;;;8.40;99.90;;;;;;5033715;28;20029;-59
2023/05/01 02:40:13;;;;;;;6.50;4.43;;;8.30;99.90;;;;;;5031818;28;20045;-59
2023/05/01 02:42:42;;;;;;;8.52;4.32;;;8.30;99.90;;;;;;5043644;28;20037;-59
2023/05/01 02:45:14;;;;;;;7.47;4.70;;;8.30;99.90;;;;;;5041599;28;20124;-59
2023/05/01 02:47:42;;;;;;;7.07;4.05;;;8.30;99.90;;;;;;5030330;28;20045;-59
2023/05/01 02:50:09;;;;;;;5.22;4.00;;;8.30;99.90;;;;;;5037693;28;20068;-59
2023/05/01 02:52:36;;;;;;;7.55;4.70;;;8.30;99.90;;;;;;5048783;28;20091;-58
2023/05/01 02:55:02;;;;;;;7.43;4.07;;;8.30;99.90;;;;;;5047413;28;20035;-59
2023/05/01 02:57:28;;;;;;;6.03;4.20;;;8.20;99.90;;;;;;5047557;28;20503;-59
2023/05/01 02:59:53;;;;;;;10.07;4.57;;;8.20;99.90;;;;;;5040195;28;20076;-59
2023/05/01 03:02:19;;;;;;;5.90;4.20;;;8.10;99.90;;;;;;5033885;28;20056;-59
2023/05/01 03:04:45;;;;;;;8.10;4.30;;;8.10;99.90;;;;;;5035018;28;20042;-59
2023/05/01 03:07:10;;;;;;;5.90;4.15;;;8.10;99.90;;;;;;5030505;28;20044;-59
2023/05/01 03:09:37;;;;;;;5.18;4.28;;;8.00;99.90;;;;;;5031751;28;20045;-60
2023/05/01 03:12:02;;;;;;;5.80;4.20;;;8.00;99.90;;;;;;5040246;28;20045;-60
2023/05/01 03:14:28;;;;;;;9.25;4.30;;;7.90;99.90;;;;;;5047741;28;20056;-59
2023/05/01 03:16:54;;;;;;;6.97;4.03;;;7.90;99.90;;;;;;5040762;28;20041;-59
2023/05/01 03:19:20;;;;;;;7.80;4.22;;;7.80;99.90;;;;;;5037760;28;20072;-59
2023/05/01 03:21:45;;;;;;;8.30;4.18;;;7.80;99.90;;;;;;5035909;28;20134;-60
2023/05/01 03:24:11;;;;;;;5.60;3.75;;;7.70;99.90;;;;;;5038170;28;20037;-59
2023/05/01 03:26:37;;;;;;;7.88;4.40;;;7.70;99.90;;;;;;5041432;28;20464;-60
2023/05/01 03:29:02;;;;;;;7.65;4.20;;;7.60;99.90;;;;;;5040406;28;20069;-59
2023/05/01 03:31:28;;;;;;;7.10;4.55;;;7.60;99.90;;;;;;5039267;28;20046;-59
2023/05/01 03:33:54;;;;;;;7.57;5.13;;;7.60;99.90;;;;;;5043823;28;20059;-58
2023/05/01 03:36:21;;;;;;;6.25;4.35;;;7.60;99.90;;;;;;5046874;28;20049;-60
2023/05/01 03:38:47;;;;;;;6.20;3.83;;;7.50;99.90;;;;;;5051833;28;20041;-60
2023/05/01 03:41:13;;;;;;;7.78;3.97;;;7.50;99.90;;;;;;5037613;28;20057;-59
2023/05/01 03:43:38;;;;;;;6.68;4.70;;;7.50;99.90;;;;;;5037767;28;20034;-59
2023/05/01 03:46:04;;;;;;;7.68;4.53;;;7.50;99.90;;;;;;5040696;28;20052;-58
2023/05/01 03:48:30;;;;;;;7.60;4.28;;;7.50;99.90;;;;;;5048420;28;20400;-59
2023/05/01 03:50:57;;;;;;;8.32;4.78;;;7.50;99.90;;;;;;5050089;28;20080;-60
2023/05/01 03:53:23;;;;;;;8.50;4.13;;;7.50;99.90;;;;;;5052600;28;20049;-59
2023/05/01 03:55:48;;;;;;;5.93;4.05;;;7.50;99.90;;;;;;5051174;28;20043;-59
2023/05/01 03:58:14;;;;;;;7.45;4.18;;;7.50;99.90;;;;;;5051540;28;20488;-58
2023/05/01 04:00:40;;;;;;;5.75;3.80;;;7.40;99.90;;;;;;5052207;28;20044;-59
2023/05/01 04:03:06;;;;;;;5.13;4.03;;;7.40;99.90;;;;;;5051437;28;20033;-58
2023/05/01 04:05:33;;;;;;;5.53;4.28;;;7.40;99.90;;;;;;5052248;28;20518;-59
2023/05/01 04:07:58;;;;;;;11.57;5.57;;;7.40;99.90;;;;;;5048691;28;20041;-60
2023/05/01 04:10:24;;;;;;;6.75;4.32;;;7.40;99.90;;;;;;5048707;28;20052;-59
2023/05/01 04:12:50;;;;;;;5.70;4.25;;;7.40;99.90;;;;;;5051954;28;20033;-59
2023/05/01 04:15:15;;;;;;;9.00;4.95;;;7.40;99.90;;;;;;5051321;28;20039;-60
2023/05/01 04:17:44;;;;;;;7.13;4.30;;;7.40;99.90;;;;;;5051104;28;20095;-59
2023/05/01 04:20:10;;;;;;;8.50;4.57;;;7.40;99.90;;;;;;5050577;28;20467;-59
2023/05/01 04:22:36;;;;;;;9.15;5.05;;;7.40;99.90;;;;;;5051062;28;20080;-60
2023/05/01 04:25:03;;;;;;;7.68;5.50;;;7.40;99.90;;;;;;5050877;28;20032;-59
2023/05/01 04:27:29;;;;;;;8.65;4.97;;;7.40;99.90;;;;;;5043286;28;20084;-60
2023/05/01 04:29:55;;;;;;;7.43;4.72;;;7.40;99.90;;;;;;5045322;28;21550;-59
2023/05/01 04:32:21;;;;;;;9.57;5.25;;;7.50;99.90;;;;;;5047334;28;20072;-59
2023/05/01 04:34:46;;;;;;;8.48;4.53;;;7.50;99.90;;;;;;5042584;28;20635;-60
2023/05/01 04:37:13;;;;;;;6.22;4.60;;;7.50;99.90;;;;;;5049330;28;20049;-59
2023/05/01 04:39:38;;;;;;;10.60;5.25;;;7.50;99.90;;;;;;5046597;28;20400;-59
2023/05/01 04:42:04;;;;;;;7.40;5.20;;;7.60;99.90;;;;;;5038888;28;20049;-58
2023/05/01 04:44:33;;;;;;;7.53;5.10;;;7.60;99.90;;;;;;5041759;28;20104;-59
2023/05/01 04:47:01;;;;;;;9.30;5.07;;;7.70;99.90;;;;;;5046439;28;20455;-59
2023/05/01 04:49:26;;;;;;;7.35;4.93;;;7.70;99.90;;;;;;5041667;28;20056;-59
2023/05/01 04:51:52;;;;;;;8.48;5.30;;;7.80;99.90;;;;;;5034470;28;20083;-59
2023/05/01 04:54:18;;;;;;;5.75;4.80;;;7.80;99.90;;;;;;5044788;28;20087;-60
2023/05/01 04:56:44;;;;;;;10.63;5.43;;;7.80;99.90;;;;;;5045850;28;20490;-59
2023/05/01 04:59:09;;;;;;;7.65;5.22;;;7.80;99.90;;;;;;5039986;28;20033;-59
2023/05/01 05:01:35;;;;;;;10.75;5.30;;;7.90;99.90;;;;;;5047755;28;20044;-60
2023/05/01 05:04:00;;;;;;;11.35;5.15;;;7.90;99.90;;;;;;5048382;28;20033;-60
2023/05/01 05:06:26;;;;;;;9.15;5.30;;;8.00;99.90;;;;;;5046761;28;20103;-60
2023/05/01 05:08:52;;;;;;;9.50;5.50;;;8.00;99.90;;;;;;5034487;28;20483;-59
2023/05/01 05:11:18;;;;;;;8.55;5.75;;;8.00;99.90;;;;;;5037781;28;20131;-60
2023/05/01 05:13:44;;;;;;;9.43;5.18;;;8.10;99.90;;;;;;5050501;28;20033;-59
2023/05/01 05:16:10;;;;;;;8.13;5.75;;;8.10;99.90;;;;;;5042264;28;20112;-61
2023/05/01 05:18:37;;;;;;;8.20;5.05;;;8.20;99.90;;;;;;5041307;28;20056;-59
2023/05/01 05:21:07;;;;;;;7.25;5.65;;;8.20;99.90;;;;;;5041355;28;20136;-59
2023/05/01 05:23:33;;;;;;;11.75;5.40;;;8.30;99.90;;;;;;5047858;28;20037;-59
2023/05/01 05:26:00;;;;;;;8.02;5.32;;;8.30;99.90;;;;;;5047373;28;20083;-59
2023/05/01 05:28:29;;;;;;;9.30;5.60;;;8.40;99.90;;;;;;5049096;28;20064;-60
2023/05/01 05:30:57;;;;;;;8.65;5.68;;;8.50;99.90;;;;;;5047935;28;20090;-59
2023/05/01 05:33:24;;;;;;;18.70;6.15;;;8.60;99.90;;;;;;5048055;28;20041;-59
2023/05/01 05:35:51;;;;;;;9.52;5.70;;;8.60;99.90;;;;;;5050469;28;20123;-59
2023/05/01 05:38:17;;;;;;;12.75;6.75;;;8.70;99.90;;;;;;5047470;28;20037;-59
2023/05/01 05:40:42;;;;;;;7.32;5.40;;;8.90;99.90;;;;;;5047555;28;20483;-59
2023/05/01 05:43:09;;;;;;;10.15;4.97;;;9.00;99.90;;;;;;5038947;28;20114;-59
2023/05/01 05:45:35;;;;;;;12.50;5.82;;;9.00;99.90;;;;;;5052607;28;20033;-59
2023/05/01 05:48:01;;;;;;;10.93;5.82;;;9.10;99.90;;;;;;5038172;28;20041;-59
2023/05/01 05:50:27;;;;;;;9.82;5.63;;;9.20;99.90;;;;;;5039098;28;21161;-59
2023/05/01 05:52:52;;;;;;;10.73;5.53;;;9.30;99.90;;;;;;5035188;28;20041;-59
2023/05/01 05:55:18;;;;;;;8.30;5.00;;;9.40;99.90;;;;;;5044041;28;20040;-60
2023/05/01 05:57:44;;;;;;;10.07;5.82;;;9.60;99.90;;;;;;5046322;28;20116;-59
2023/05/01 06:00:10;;;;;;;10.98;5.82;;;9.70;99.90;;;;;;5043326;28;20573;-59
2023/05/01 06:02:36;;;;;;;10.18;5.40;;;9.80;99.90;;;;;;5036469;28;20049;-60
2023/05/01 06:05:02;;;;;;;8.27;5.45;;;9.90;99.90;;;;;;5048391;28;20396;-59
2023/05/01 06:07:27;;;;;;;7.82;5.15;;;10.00;99.90;;;;;;5049903;28;20115;-58
2023/05/01 06:09:54;;;;;;;9.75;5.70;;;10.10;99.90;;;;;;5046799;28;20574;-59
2023/05/01 06:12:20;;;;;;;9.10;5.60;;;10.20;99.90;;;;;;5049924;28;20488;-59
2023/05/01 06:14:46;;;;;;;13.73;5.55;;;10.30;99.90;;;;;;5047431;28;20116;-59
2023/05/01 06:17:13;;;;;;;11.75;5.88;;;10.40;99.90;;;;;;5048618;28;20576;-59
2023/05/01 06:19:38;;;;;;;10.45;6.07;;;10.60;99.90;;;;;;5048690;28;20630;-59
2023/05/01 06:22:05;;;;;;;9.43;5.10;;;10.70;99.90;;;;;;5048688;28;20033;-59
2023/05/01 06:24:31;;;;;;;9.32;5.57;;;10.80;99.90;;;;;;5050095;28;20049;-60
2023/05/01 06:26:57;;;;;;;8.43;5.28;;;11.00;99.90;;;;;;5048487;28;20037;-59
2023/05/01 06:29:23;;;;;;;11.15;5.88;;;11.00;99.90;;;;;;5048379;28;20060;-58
2023/05/01 06:31:48;;;;;;;10.07;5.35;;;11.10;99.90;;;;;;5049337;28;20041;-59
2023/05/01 06:34:14;;;;;;;10.45;5.40;;;11.10;99.90;;;;;;5050038;28;20051;-59
2023/05/01 06:36:40;;;;;;;9.48;5.28;;;11.20;99.90;;;;;;5046980;28;20059;-59
2023/05/01 06:39:05;;;;;;;13.00;5.65;;;11.20;99.90;;;;;;5048111;28;20116;-59
2023/05/01 06:41:33;;;;;;;9.85;5.45;;;11.20;99.90;;;;;;5049597;28;20073;-60
2023/05/01 06:43:58;;;;;;;8.52;5.40;;;11.30;99.90;;;;;;5049551;28;20041;-59
2023/05/01 06:46:24;;;;;;;9.52;4.78;;;11.40;99.90;;;;;;5049639;28;20376;-59
2023/05/01 06:48:50;;;;;;;9.25;5.38;;;11.60;99.90;;;;;;5049431;28;20116;-59
2023/05/01 06:51:15;;;;;;;10.43;4.45;;;11.60;99.90;;;;;;5053407;28;20143;-59
2023/05/01 06:53:41;;;;;;;10.55;4.88;;;11.70;99.90;;;;;;5053488;28;20040;-58
2023/05/01 06:56:07;;;;;;;8.20;4.65;;;11.80;99.90;;;;;;5050886;28;20080;-60
2023/05/01 06:58:33;;;;;;;8.00;4.05;;;11.80;99.90;;;;;;5052491;28;20049;-60
2023/05/01 07:00:59;;;;;;;10.02;4.20;;;11.80;99.90;;;;;;5052843;28;20036;-60
2023/05/01 07:03:26;;;;;;;8.15;4.18;;;11.90;99.90;;;;;;5052975;28;20039;-58
2023/05/01 07:05:53;;;;;;;9.98;4.28;;;11.90;99.90;;;;;;5051389;28;20439;-59
2023/05/01 07:08:18;;;;;;;8.98;4.47;;;12.00;99.90;;;;;;5052526;28;20511;-60
2023/05/01 07:10:44;;;;;;;8.43;4.45;;;11.90;99.90;;;;;;5051657;28;20068;-59
2023/05/01 07:13:10;;;;;;;13.07;5.60;;;11.90;99.90;;;;;;5052672;28;20045;-59
2023/05/01 07:15:36;;;;;;;11.68;4.50;;;11.90;99.90;;;;;;5052642;28;20064;-60
2023/05/01 07:18:04;;;;;;;8.23;4.43;;;11.80;99.90;;;;;;5050964;28;20086;-60
2023/05/01 07:20:30;;;;;;;6.78;4.40;;;11.80;99.90;;;;;;5051409;28;20037;-58
2023/05/01 07:22:56;;;;;;;8.82;4.68;;;11.80;99.90;;;;;;5051698;28;20037;-59
2023/05/01 07:25:22;;;;;;;8.50;4.65;;;11.80;99.90;;;;;;5052270;28;20035;-59
2023/05/01 07:27:47;;;;;;;8.85;4.40;;;11.80;99.90;;;;;;5052797;28;20443;-59
2023/05/01 07:30:13;;;;;;;6.90;4.60;;;11.80;99.90;;;;;;5052560;28;20036;-59
2023/05/01 07:32:39;;;;;;;7.13;4.75;;;11.80;99.90;;;;;;5052358;28;20512;-59
2023/05/01 07:35:05;;;;;;;8.43;4.80;;;11.90;99.90;;;;;;5050685;28;20052;-58
2023/05/01 07:37:31;;;;;;;9.27;4.80;;;12.00;99.90;;;;;;5052505;28;20041;-59
2023/05/01 07:39:57;;;;;;;8.27;4.72;;;12.20;99.90;;;;;;5051436;28;20098;-59
2023/05/01 07:42:22;;;;;;;8.25;4.50;;;12.30;99.90;;;;;;5052039;28;20052;-59
2023/05/01 07:44:49;;;;;;;7.60;4.47;;;12.40;99.90;;;;;;5052694;28;20041;-59
2023/05/01 07:47:15;;;;;;;7.68;4.60;;;12.50;99.90;;;;;;5068831;28;20041;-59
2023/05/01 07:49:41;;;;;;;8.60;4.60;;;12.70;99.90;;;;;;5051881;28;20458;-59
2023/05/01 07:52:07;;;;;;;7.90;4.93;;;12.80;99.90;;;;;;5051367;28;20044;-58
2023/05/01 07:54:33;;;;;;;11.25;4.97;;;13.10;99.90;;;;;;5050860;28;20041;-58
2023/05/01 07:57:00;;;;;;;8.23;4.55;;;13.40;99.90;;;;;;5052385;28;20140;-59
2023/05/01 07:59:26;;;;;;;8.98;4.20;;;13.50;99.90;;;;;;5049799;28;20044;-59
2023/05/01 08:01:52;;;;;;;10.02;4.93;;;13.70;99.90;;;;;;5050920;28;20079;-59
2023/05/01 08:04:17;;;;;;;6.60;4.30;;;13.80;99.90;;;;;;5051477;28;20037;-59
2023/05/01 08:06:43;;;;;;;9.20;4.60;;;14.00;99.90;;;;;;5050240;28;20040;-59
2023/05/01 08:09:09;;;;;;;7.45;4.13;;;14.10;99.90;;;;;;5051906;28;20037;-59
2023/05/01 08:11:35;;;;;;;6.72;3.80;;;14.40;99.90;;;;;;5051691;28;20416;-59
2023/05/01 08:14:01;;;;;;;9.15;4.40;;;14.40;99.90;;;;;;5049448;28;20429;-59
2023/05/01 08:16:26;;;;;;;10.05;4.03;;;14.50;99.90;;;;;;5051293;28;20055;-60
2023/05/01 08:18:52;;;;;;;7.70;4.10;;;14.60;99.90;;;;;;5051504;28;20048;-59
2023/05/01 08:21:17;;;;;;;9.35;4.18;;;14.80;99.90;;;;;;5050766;28;20090;-58
2023/05/01 08:23:43;;;;;;;5.38;3.88;;;14.90;99.90;;;;;;5050529;28;20091;-59
2023/05/01 08:26:09;;;;;;;5.88;3.88;;;15.00;99.90;;;;;;5051183;28;20444;-59
2023/05/01 08:28:34;;;;;;;6.03;4.03;;;15.20;99.90;;;;;;5049308;28;20446;-60
2023/05/01 08:31:01;;;;;;;6.45;3.80;;;15.30;99.90;;;;;;5051565;28;20036;-61
2023/05/01 08:33:26;;;;;;;6.97;3.90;;;15.50;99.90;;;;;;5050848;28;20558;-59
2023/05/01 08:35:52;;;;;;;6.78;4.20;;;15.60;99.90;;;;;;5050788;28;20132;-59
2023/05/01 08:38:18;;;;;;;10.40;3.70;;;15.70;99.90;;;;;;5049319;28;20068;-59
2023/05/01 08:40:51;;;;;;;6.82;4.18;;;15.80;99.20;;;;;;5047385;28;20135;-58
2023/05/01 08:43:17;;;;;;;7.70;5.03;;;15.90;99.00;;;;;;5047301;28;20048;-59
2023/05/01 08:45:45;;;;;;;7.97;4.50;;;16.10;99.00;;;;;;5050080;28;20455;-59
2023/05/01 08:48:11;;;;;;;10.13;4.45;;;16.20;98.50;;;;;;5049694;28;20118;-59
2023/05/01 08:50:39;;;;;;;7.80;3.90;;;16.30;98.30;;;;;;5047881;28;20041;-58
2023/05/01 08:53:05;;;;;;;8.35;4.45;;;16.40;97.90;;;;;;5048029;28;20040;-59
2023/05/01 08:55:33;;;;;;;6.95;3.85;;;16.50;97.80;;;;;;5050359;28;20478;-61
2023/05/01 08:58:00;;;;;;;6.60;3.42;;;16.60;97.30;;;;;;5049525;28;20040;-60
2023/05/01 09:00:27;;;;;;;7.70;4.03;;;16.60;95.80;;;;;;5049555;28;20033;-59
2023/05/01 09:02:55;;;;;;;10.10;4.82;;;16.70;96.10;;;;;;5047667;28;20037;-60
2023/05/01 09:05:20;;;;;;;7.15;3.65;;;16.80;96.60;;;;;;5049034;28;20040;-59
2023/05/01 09:07:47;;;;;;;5.95;3.30;;;17.10;95.70;;;;;;5049385;28;20102;-59
2023/05/01 09:10:14;;;;;;;4.32;2.42;;;17.20;94.80;;;;;;5049341;28;20094;-59
2023/05/01 09:12:43;;;;;;;6.97;2.90;;;17.30;93.50;;;;;;5048048;28;20047;-59
2023/05/01 09:15:10;;;;;;;8.00;3.00;;;17.50;94.60;;;;;;5047885;28;20051;-60
2023/05/01 09:17:36;;;;;;;7.95;2.80;;;17.70;94.40;;;;;;5048771;28;20033;-59
2023/05/01 09:20:05;;;;;;;5.43;3.10;;;17.90;93.90;;;;;;5049632;28;20056;-58
2023/05/01 09:22:32;;;;;;;5.90;2.85;;;18.10;94.60;;;;;;5047891;28;20636;-59
2023/05/01 09:24:58;;;;;;;8.65;3.47;;;18.30;94.00;;;;;;5049660;28;20025;-60
2023/05/01 09:27:25;;;;;;;6.63;3.65;;;18.50;93.60;;;;;;5049247;28;20037;-58
2023/05/01 09:29:51;;;;;;;6.28;3.33;;;18.50;92.40;;;;;;5048938;28;20028;-59
2023/05/01 09:32:19;;;;;;;6.65;3.30;;;18.60;92.30;;;;;;5049372;28;20045;-59
2023/05/01 09:34:47;;;;;;;8.65;3.17;;;18.70;92.80;;;;;;5049597;28;20040;-58
2023/05/01 09:37:27;;;;;;;7.80;3.35;;;18.70;91.20;;;;;;5049706;28;20048;-60
2023/05/01 09:40:09;;;;;;;4.70;2.67;;;18.70;90.10;;;;;;5047652;28;20119;-60
2023/05/01 09:42:50;;;;;;;5.78;2.78;;;18.80;91.30;;;;;;5047792;28;20411;-60
2023/05/01 09:45:17;;;;;;;5.55;2.13;;;18.80;88.80;;;;;;5049425;28;20440;-61
2023/05/01 09:47:44;;;;;;;6.32;2.70;;;18.90;89.80;;;;;;5048537;28;20568;-60
2023/05/01 09:50:31;;;;;;;6.38;2.67;;;19.20;90.60;;;;;;5048657;28;20063;-59
2023/05/01 09:52:56;;;;;;;6.03;2.60;;;19.50;90.90;;;;;;5049220;28;20047;-59
2023/05/01 09:55:23;;;;;;;8.60;3.05;;;19.60;90.50;;;;;;5049300;28;20487;-59
2023/05/01 09:57:49;;;;;;;5.97;2.42;;;19.60;90.50;;;;;;5049155;28;20044;-58
2023/05/01 10:00:16;;;;;;;7.43;2.58;;;19.50;90.50;;;;;;5049338;28;20028;-58
2023/05/01 10:02:46;;;;;;;4.38;2.35;;;19.20;89.50;;;;;;5048054;28;20044;-58
2023/05/01 10:05:12;;;;;;;5.88;2.40;;;19.00;88.00;;;;;;5049041;28;20037;-58
2023/05/01 10:07:39;;;;;;;5.60;2.40;;;19.10;89.80;;;;;;5048613;28;20065;-59
2023/05/01 10:10:15;;;;;;;6.20;2.67;;;19.30;89.70;;;;;;5050767;28;20041;-59
2023/05/01 10:12:41;;;;;;;4.22;1.42;;;19.30;89.10;;;;;;5050631;28;20196;-59
2023/05/01 10:15:08;;;;;;;3.83;1.70;;;19.10;87.00;;;;;;5048862;28;20163;-59
2023/05/01 10:17:34;;;;;;;4.07;1.70;;;19.10;88.50;;;;;;5049693;28;20048;-60
2023/05/01 10:20:00;;;;;;;3.50;1.40;;;19.20;88.50;;;;;;5050306;28;20064;-59
2023/05/01 10:22:27;;;;;;;2.33;0.93;;;19.30;88.50;;;;;;5050141;28;20073;-59
2023/05/01 10:24:53;;;;;;;1.45;0.50;;;19.20;86.70;;;;;;5054335;28;20511;-60
2023/05/01 10:27:21;;;;;;;1.40;0.60;;;19.30;87.70;;;;;;5053398;28;20060;-59
2023/05/01 10:29:49;;;;;;;1.42;0.90;;;19.40;87.40;;;;;;5053205;28;20041;-59
2023/05/01 10:32:14;;;;;;;3.60;1.02;;;19.30;82.80;;;;;;5053453;28;20439;-59
2023/05/01 10:34:48;;;;;;;4.22;1.30;;;19.50;86.80;;;;;;5049814;28;20041;-59
2023/05/01 10:37:22;;;;;;;2.45;1.50;;;19.80;86.70;;;;;;5051138;28;20037;-59
2023/05/01 10:39:48;;;;;;;7.47;2.35;;;20.10;87.90;;;;;;5052647;28;20048;-58
2023/05/01 10:42:14;;;;;;;5.45;1.92;;;20.30;88.80;;;;;;5051911;28;20045;-59
2023/05/01 10:44:41;;;;;;;3.28;2.10;;;20.60;89.40;;;;;;5052293;28;20056;-59
2023/05/01 10:47:29;;;;;;;5.00;2.05;;;21.00;88.50;;;;;;5052492;28;20029;-59
2023/05/01 10:50:06;;;;;;;7.15;2.30;;;21.10;84.40;;;;;;5051721;28;20056;-59
2023/05/01 10:53:09;;;;;;;4.32;2.08;;;21.20;84.80;;;;;;5051940;28;20119;-58
2023/05/01 10:55:36;;;;;;;8.23;2.40;;;21.40;88.10;;;;;;5051864;28;20098;-59
2023/05/01 10:58:02;;;;;;;3.10;1.90;;;21.70;87.90;;;;;;5051764;28;20140;-58
2023/05/01 11:00:28;;;;;;;3.97;1.80;;;22.00;88.20;;;;;;5051149;28;20387;-58
2023/05/01 11:03:23;;;;;;;4.68;2.10;;;22.20;86.00;;;;;;5050936;28;20132;-59
2023/05/01 11:06:02;;;;;;;3.83;1.83;;;22.40;87.00;;;;;;5051633;28;20487;-59
2023/05/01 11:08:32;;;;;;;5.93;1.60;;;22.60;85.40;;;;;;5051628;28;20088;-61
2023/05/01 11:11:20;;;;;;;3.53;1.20;;;22.30;84.00;;;;;;5051839;28;20037;-60
2023/05/01 11:14:01;;;;;;;4.88;1.30;;;22.40;84.10;;;;;;5052890;28;20068;-59
2023/05/01 11:16:36;;;;;;;3.50;1.43;;;22.40;81.40;;;;;;5056411;28;20152;-59
2023/05/01 11:19:06;;;;;;;5.30;1.60;;;22.10;78.00;;;;;;5053074;28;20033;-60
2023/05/01 11:21:33;;;;;;;2.15;1.20;;;22.20;81.30;;;;;;5052967;28;20041;-60
2023/05/01 11:24:03;;;;;;;2.17;0.93;;;22.10;81.00;;;;;;5052792;28;20040;-60
2023/05/01 11:26:29;;;;;;;3.75;0.77;;;22.20;80.80;;;;;;5054479;28;20044;-60
2023/05/01 11:28:57;;;;;;;3.45;1.08;;;22.20;82.50;;;;;;5043880;28;20394;-59
2023/05/01 11:31:25;;;;;;;2.15;1.13;;;22.00;80.50;;;;;;5049955;28;20124;-60
2023/05/01 11:33:51;;;;;;;3.13;1.30;;;22.00;79.80;;;;;;5052488;28;20041;-60
2023/05/01 11:36:18;;;;;;;2.50;1.13;;;22.00;80.70;;;;;;5049870;28;20412;-61
2023/05/01 11:38:55;;;;;;;3.53;1.08;;;21.90;80.70;;;;;;5051111;28;20033;-60
2023/05/01 11:41:22;;;;;;;1.45;1.02;;;21.50;74.00;;;;;;5047997;28;20056;-59
2023/05/01 11:43:49;;;;;;;2.45;0.90;;;21.30;76.60;;;;;;5051443;28;20404;-60
2023/05/01 11:46:29;;;;;;;1.88;0.82;;;21.30;78.10;;;;;;5050073;28;20112;-60
2023/05/01 11:49:00;;;;;;;2.47;1.67;;;21.50;79.80;;;;;;5052109;28;20511;-59
2023/05/01 11:51:27;;;;;;;3.13;1.48;;;21.60;81.50;;;;;;5034537;28;20139;-60
2023/05/01 11:54:13;;;;;;;4.28;1.20;;;21.50;81.90;;;;;;5050907;28;20080;-60
2023/05/01 11:56:42;;;;;;;2.17;1.20;;;21.70;82.40;;;;;;5051177;28;20049;-60
2023/05/01 11:59:14;;;;;;;2.67;1.00;;;21.50;81.70;;;;;;5052261;28;20033;-59
2023/05/01 12:01:42;;;;;;;1.85;0.90;;;21.70;81.80;;;;;;5052296;28;20128;-60
2023/05/01 12:04:08;;;;;;;2.28;1.10;;;21.70;79.60;;;;;;5054281;28;20041;-59
2023/05/01 12:06:44;;;;;;;4.60;0.93;;;21.50;77.20;;;;;;5052120;28;20039;-60
2023/05/01 12:09:19;;;;;;;4.13;1.20;;;21.00;74.00;;;;;;5052251;28;20118;-60
2023/05/01 12:11:48;;;;;;;2.53;1.10;;;20.70;74.00;;;;;;5052520;28;20037;-60
2023/05/01 12:14:14;;;;;;;2.70;1.20;;;20.40;77.30;;;;;;5051542;28;20049;-59
2023/05/01 12:16:41;;;;;;;2.78;1.55;;;20.50;80.40;;;;;;5051938;28;20044;-60
2023/05/01 12:19:07;;;;;;;2.13;1.35;;;20.60;80.70;;;;;;5052219;28;20037;-61
2023/05/01 12:21:34;;;;;;;3.60;1.10;;;20.60;78.40;;;;;;5051729;28;20051;-59
2023/05/01 12:24:11;;;;;;;3.13;1.85;;;20.60;78.20;;;;;;5052145;28;20073;-60
2023/05/01 12:26:37;;;;;;;2.40;1.73;;;20.70;78.20;;;;;;5046392;28;20388;-59
2023/05/01 12:29:05;;;;;;;3.30;1.80;;;20.60;79.70;;;;;;5050505;28;20052;-59
2023/05/01 12:31:31;;;;;;;2.45;1.58;;;20.40;77.30;;;;;;5050160;28;20123;-61
2023/05/01 12:33:59;;;;;;;3.38;1.50;;;20.40;80.00;;;;;;5051394;28;20059;-60
2023/05/01 12:36:27;;;;;;;3.40;1.73;;;20.70;82.60;;;;;;5051781;28;20090;-59
2023/05/01 12:39:13;;;;;;;4.65;1.92;;;21.00;80.50;;;;;;5050069;28;20041;-60
2023/05/01 12:41:42;;;;;;;2.65;1.48;;;20.90;77.90;;;;;;5050191;28;20045;-60
2023/05/01 12:44:24;;;;;;;5.70;2.00;;;21.20;78.90;;;;;;5050815;28;20535;-60
2023/05/01 12:47:08;;;;;;;5.85;1.88;;;21.20;81.30;;;;;;5050776;28;20544;-61
2023/05/01 12:49:36;;;;;;;2.47;1.60;;;21.60;79.50;;;;;;5049888;28;20057;-60
2023/05/01 12:52:04;;;;;;;5.35;2.33;;;21.90;77.90;;;;;;5050348;28;20406;-60
2023/05/01 12:54:31;;;;;;;3.05;1.70;;;22.00;79.00;;;;;;5048548;28;20044;-60